sensor_id;sensor_type;location;lat;lon;timestamp;temperature;humidity
21039;DHT22;10678;51.002;4.786;2023-04-15T00:00:37;9.70;99.90
21039;DHT22;10678;51.002;4.786;2023-04-15T00:03:02;9.70;99.90
21039;DHT22;10678;51.002;4.786;2023-04-15T00:05:29;9.70;99.90
21039;DHT22;10678;51.002;4.786;2023-04-15T00:07:56;9.70;99.90
21039;DHT22;10678;51.002;4.786;2023-04-15T00:10:22;9.70;99.90
21039;DHT22;10678;51.002;4.786;2023-04-15T00:12:47;9.70;99.90
21039;DHT22;10678;51.002;4.786;2023-04-15T00:15:13;9.80;99.90
21039;DHT22;10678;51.002;4.786;2023-04-15T00:17:39;9.80;99.90
21039;DHT22;10678;51.002;4.786;2023-04-15T00:20:05;9.90;99.90
21039;DHT22;10678;51.002;4.786;2023-04-15T00:22:31;9.90;99.90
21039;DHT22;10678;51.002;4.786;2023-04-15T00:24:57;9.90;99.90
21039;DHT22;10678;51.002;4.786;2023-04-15T00:27:23;9.90;99.90
21039;DHT22;10678;51.002;4.786;2023-04-15T00:29:48;10.00;99.90
21039;DHT22;10678;51.002;4.786;2023-04-15T00:32:14;10.00;99.90
21039;DHT22;10678;51.002;4.786;2023-04-15T00:34:40;10.00;99.90
21039;DHT22;10678;51.002;4.786;2023-04-15T00:37:06;10.00;99.90
21039;DHT22;10678;51.002;4.786;2023-04-15T00:39:31;10.00;99.90
21039;DHT22;10678;51.002;4.786;2023-04-15T00:41:57;10.10;99.90
21039;DHT22;10678;51.002;4.786;2023-04-15T00:44:22;10.10;99.90
21039;DHT22;10678;51.002;4.786;2023-04-15T00:46:50;10.10;99.90
21039;DHT22;10678;51.002;4.786;2023-04-15T00:49:16;10.10;99.90
21039;DHT22;10678;51.002;4.786;2023-04-15T00:51:43;10.20;99.90
21039;DHT22;10678;51.002;4.786;2023-04-15T00:54:09;10.20;99.90
21039;DHT22;10678;51.002;4.786;2023-04-15T00:56:38;10.20;99.90
21039;DHT22;10678;51.002;4.786;2023-04-15T00:59:04;10.30;99.90
21039;DHT22;10678;51.002;4.786;2023-04-15T01:01:33;10.40;99.90
21039;DHT22;10678;51.002;4.786;2023-04-15T01:04:00;10.40;99.90
21039;DHT22;10678;51.002;4.786;2023-04-15T01:06:25;10.40;99.90
21039;DHT22;10678;51.002;4.786;2023-04-15T01:08:55;10.40;99.90
21039;DHT22;10678;51.002;4.786;2023-04-15T01:11:22;10.40;99.90
21039;DHT22;10678;51.002;4.786;2023-04-15T01:13:50;10.40;99.90
21039;DHT22;10678;51.002;4.786;2023-04-15T01:16:16;10.30;99.90
21039;DHT22;10678;51.002;4.786;2023-04-15T01:18:43;10.20;99.90
21039;DHT22;10678;51.002;4.786;2023-04-15T01:21:08;10.30;99.90
21039;DHT22;10678;51.002;4.786;2023-04-15T01:23:35;10.30;99.90
21039;DHT22;10678;51.002;4.786;2023-04-15T01:26:03;10.40;99.90
21039;DHT22;10678;51.002;4.786;2023-04-15T01:28:30;10.40;99.90
21039;DHT22;10678;51.002;4.786;2023-04-15T01:31:12;10.40;99.90
21039;DHT22;10678;51.002;4.786;2023-04-15T01:33:38;10.30;99.90
21039;DHT22;10678;51.002;4.786;2023-04-15T01:36:06;10.30;99.90
21039;DHT22;10678;51.002;4.786;2023-04-15T01:38:33;10.20;99.90
21039;DHT22;10678;51.002;4.786;2023-04-15T01:40:59;10.30;99.90
21039;DHT22;10678;51.002;4.786;2023-04-15T01:43:25;10.30;99.90
21039;DHT22;10678;51.002;4.786;2023-04-15T01:45:51;10.30;99.90
21039;DHT22;10678;51.002;4.786;2023-04-15T01:48:16;10.30;99.90
21039;DHT22;10678;51.002;4.786;2023-04-15T01:50:43;10.30;99.90
21039;DHT22;10678;51.002;4.786;2023-04-15T01:53:09;10.30;99.90
21039;DHT22;10678;51.002;4.786;2023-04-15T01:55:35;10.30;99.90
21039;DHT22;10678;51.002;4.786;2023-04-15T01:58:01;10.30;99.90
21039;DHT22;10678;51.002;4.786;2023-04-15T02:00:27;10.30;99.90
21039;DHT22;10678;51.002;4.786;2023-04-15T02:02:52;10.30;99.90
21039;DHT22;10678;51.002;4.786;2023-04-15T02:05:18;10.40;99.90
21039;DHT22;10678;51.002;4.786;2023-04-15T02:07:44;10.10;99.90
21039;DHT22;10678;51.002;4.786;2023-04-15T02:10:10;10.10;99.90
21039;DHT22;10678;51.002;4.786;2023-04-15T02:12:38;10.20;99.90
21039;DHT22;10678;51.002;4.786;2023-04-15T02:15:04;10.10;99.90
21039;DHT22;10678;51.002;4.786;2023-04-15T02:17:32;10.10;99.90
21039;DHT22;10678;51.002;4.786;2023-04-15T02:19:59;10.10;99.90
21039;DHT22;10678;51.002;4.786;2023-04-15T02:22:25;10.10;99.90
21039;DHT22;10678;51.002;4.786;2023-04-15T02:24:51;10.20;99.90
21039;DHT22;10678;51.002;4.786;2023-04-15T02:27:17;10.10;99.90
21039;DHT22;10678;51.002;4.786;2023-04-15T02:29:43;10.10;99.90
21039;DHT22;10678;51.002;4.786;2023-04-15T02:32:10;10.10;99.90
21039;DHT22;10678;51.002;4.786;2023-04-15T02:34:36;10.20;99.90
21039;DHT22;10678;51.002;4.786;2023-04-15T02:37:08;10.10;99.90
21039;DHT22;10678;51.002;4.786;2023-04-15T02:39:34;10.20;99.90
21039;DHT22;10678;51.002;4.786;2023-04-15T02:41:59;10.20;99.90
21039;DHT22;10678;51.002;4.786;2023-04-15T02:44:26;10.20;99.90
21039;DHT22;10678;51.002;4.786;2023-04-15T02:46:52;10.10;99.90
21039;DHT22;10678;51.002;4.786;2023-04-15T02:49:19;10.10;99.90
21039;DHT22;10678;51.002;4.786;2023-04-15T02:51:45;10.20;99.90
21039;DHT22;10678;51.002;4.786;2023-04-15T02:54:23;10.20;99.90
21039;DHT22;10678;51.002;4.786;2023-04-15T02:56:50;10.30;99.90
21039;DHT22;10678;51.002;4.786;2023-04-15T02:59:16;10.20;99.90
21039;DHT22;10678;51.002;4.786;2023-04-15T03:01:42;10.10;99.90
21039;DHT22;10678;51.002;4.786;2023-04-15T03:04:08;10.10;99.90
21039;DHT22;10678;51.002;4.786;2023-04-15T03:06:34;10.10;99.90
21039;DHT22;10678;51.002;4.786;2023-04-15T03:09:00;10.00;99.90
21039;DHT22;10678;51.002;4.786;2023-04-15T03:11:27;10.10;99.90
21039;DHT22;10678;51.002;4.786;2023-04-15T03:13:53;10.10;99.90
21039;DHT22;10678;51.002;4.786;2023-04-15T03:16:19;10.10;99.90
21039;DHT22;10678;51.002;4.786;2023-04-15T03:18:45;10.20;99.90
21039;DHT22;10678;51.002;4.786;2023-04-15T03:21:10;10.20;99.90
21039;DHT22;10678;51.002;4.786;2023-04-15T03:23:36;10.10;99.90
21039;DHT22;10678;51.002;4.786;2023-04-15T03:26:02;10.20;99.90
21039;DHT22;10678;51.002;4.786;2023-04-15T03:28:27;10.00;99.90
21039;DHT22;10678;51.002;4.786;2023-04-15T03:30:54;10.00;99.90
21039;DHT22;10678;51.002;4.786;2023-04-15T03:33:20;10.00;99.90
21039;DHT22;10678;51.002;4.786;2023-04-15T03:35:45;10.00;99.90
21039;DHT22;10678;51.002;4.786;2023-04-15T03:38:11;10.10;99.90
21039;DHT22;10678;51.002;4.786;2023-04-15T03:40:39;10.10;99.90
21039;DHT22;10678;51.002;4.786;2023-04-15T03:43:05;10.10;99.90
21039;DHT22;10678;51.002;4.786;2023-04-15T03:45:31;10.10;99.90
21039;DHT22;10678;51.002;4.786;2023-04-15T03:47:57;10.10;99.90
21039;DHT22;10678;51.002;4.786;2023-04-15T03:50:22;10.10;99.90
21039;DHT22;10678;51.002;4.786;2023-04-15T03:52:48;10.00;99.90
21039;DHT22;10678;51.002;4.786;2023-04-15T03:55:13;10.00;99.90
21039;DHT22;10678;51.002;4.786;2023-04-15T03:57:40;10.00;99.90
21039;DHT22;10678;51.002;4.786;2023-04-15T04:00:07;9.90;99.90
21039;DHT22;10678;51.002;4.786;2023-04-15T04:02:33;10.00;99.90
21039;DHT22;10678;51.002;4.786;2023-04-15T04:04:59;10.00;99.90
21039;DHT22;10678;51.002;4.786;2023-04-15T04:07:25;9.90;99.90
21039;DHT22;10678;51.002;4.786;2023-04-15T04:09:50;9.90;99.90
21039;DHT22;10678;51.002;4.786;2023-04-15T04:12:16;9.90;99.90
21039;DHT22;10678;51.002;4.786;2023-04-15T04:14:42;10.00;99.90
21039;DHT22;10678;51.002;4.786;2023-04-15T04:17:07;10.00;99.90
21039;DHT22;10678;51.002;4.786;2023-04-15T04:19:33;10.00;99.90
21039;DHT22;10678;51.002;4.786;2023-04-15T04:21:59;10.00;99.90
21039;DHT22;10678;51.002;4.786;2023-04-15T04:24:25;10.10;99.90
21039;DHT22;10678;51.002;4.786;2023-04-15T04:26:50;9.90;99.90
21039;DHT22;10678;51.002;4.786;2023-04-15T04:29:16;9.90;99.90
21039;DHT22;10678;51.002;4.786;2023-04-15T04:31:42;9.80;99.90
21039;DHT22;10678;51.002;4.786;2023-04-15T04:34:07;9.90;99.90
21039;DHT22;10678;51.002;4.786;2023-04-15T04:36:33;9.80;99.90
21039;DHT22;10678;51.002;4.786;2023-04-15T04:38:59;9.90;99.90
21039;DHT22;10678;51.002;4.786;2023-04-15T04:41:25;9.90;99.90
21039;DHT22;10678;51.002;4.786;2023-04-15T04:43:51;10.00;99.90
21039;DHT22;10678;51.002;4.786;2023-04-15T04:46:17;10.00;99.90
21039;DHT22;10678;51.002;4.786;2023-04-15T04:48:42;10.00;99.90
21039;DHT22;10678;51.002;4.786;2023-04-15T04:51:08;10.10;99.90
21039;DHT22;10678;51.002;4.786;2023-04-15T04:53:34;10.00;99.90
21039;DHT22;10678;51.002;4.786;2023-04-15T04:56:02;10.00;99.90
21039;DHT22;10678;51.002;4.786;2023-04-15T04:58:27;10.00;99.90
21039;DHT22;10678;51.002;4.786;2023-04-15T05:00:53;10.00;99.90
21039;DHT22;10678;51.002;4.786;2023-04-15T05:03:19;10.00;99.90
21039;DHT22;10678;51.002;4.786;2023-04-15T05:05:44;10.00;99.90
21039;DHT22;10678;51.002;4.786;2023-04-15T05:08:10;10.20;99.90
21039;DHT22;10678;51.002;4.786;2023-04-15T05:10:35;10.30;99.90
21039;DHT22;10678;51.002;4.786;2023-04-15T05:13:01;10.30;99.90
21039;DHT22;10678;51.002;4.786;2023-04-15T05:15:27;10.20;99.90
21039;DHT22;10678;51.002;4.786;2023-04-15T05:17:52;10.30;99.90
21039;DHT22;10678;51.002;4.786;2023-04-15T05:20:18;10.40;99.90
21039;DHT22;10678;51.002;4.786;2023-04-15T05:22:44;10.40;99.90
21039;DHT22;10678;51.002;4.786;2023-04-15T05:25:09;10.40;99.90
21039;DHT22;10678;51.002;4.786;2023-04-15T05:27:35;10.30;99.90
21039;DHT22;10678;51.002;4.786;2023-04-15T05:30:01;10.40;99.90
21039;DHT22;10678;51.002;4.786;2023-04-15T05:32:26;10.40;99.90
21039;DHT22;10678;51.002;4.786;2023-04-15T05:34:52;10.30;99.90
21039;DHT22;10678;51.002;4.786;2023-04-15T05:37:17;10.30;99.90
21039;DHT22;10678;51.002;4.786;2023-04-15T05:39:45;10.40;99.90
21039;DHT22;10678;51.002;4.786;2023-04-15T05:42:11;10.50;99.90
21039;DHT22;10678;51.002;4.786;2023-04-15T05:44:36;10.60;99.90
21039;DHT22;10678;51.002;4.786;2023-04-15T05:47:02;10.60;99.90
21039;DHT22;10678;51.002;4.786;2023-04-15T05:49:28;10.60;99.90
21039;DHT22;10678;51.002;4.786;2023-04-15T05:51:54;10.60;99.90
21039;DHT22;10678;51.002;4.786;2023-04-15T05:54:20;10.60;99.90
21039;DHT22;10678;51.002;4.786;2023-04-15T05:56:47;10.70;99.90
21039;DHT22;10678;51.002;4.786;2023-04-15T05:59:13;10.70;99.90
21039;DHT22;10678;51.002;4.786;2023-04-15T06:01:38;10.80;99.90
21039;DHT22;10678;51.002;4.786;2023-04-15T06:04:04;10.90;99.90
21039;DHT22;10678;51.002;4.786;2023-04-15T06:06:30;11.00;99.90
21039;DHT22;10678;51.002;4.786;2023-04-15T06:08:57;10.80;99.90
21039;DHT22;10678;51.002;4.786;2023-04-15T06:11:23;11.00;99.90
21039;DHT22;10678;51.002;4.786;2023-04-15T06:13:48;11.20;99.90
21039;DHT22;10678;51.002;4.786;2023-04-15T06:16:14;11.10;99.90
21039;DHT22;10678;51.002;4.786;2023-04-15T06:18:40;11.20;99.90
21039;DHT22;10678;51.002;4.786;2023-04-15T06:21:05;11.20;99.90
21039;DHT22;10678;51.002;4.786;2023-04-15T06:23:33;11.50;99.90
21039;DHT22;10678;51.002;4.786;2023-04-15T06:25:59;11.60;99.90
21039;DHT22;10678;51.002;4.786;2023-04-15T06:28:25;11.70;99.90
21039;DHT22;10678;51.002;4.786;2023-04-15T06:30:52;11.80;99.90
21039;DHT22;10678;51.002;4.786;2023-04-15T06:33:18;12.00;99.90
21039;DHT22;10678;51.002;4.786;2023-04-15T06:35:43;12.20;99.90
21039;DHT22;10678;51.002;4.786;2023-04-15T06:38:09;12.40;99.90
21039;DHT22;10678;51.002;4.786;2023-04-15T06:40:34;12.70;99.90
21039;DHT22;10678;51.002;4.786;2023-04-15T06:43:00;12.90;99.90
21039;DHT22;10678;51.002;4.786;2023-04-15T06:45:26;12.90;99.90
21039;DHT22;10678;51.002;4.786;2023-04-15T06:47:51;13.30;99.90
21039;DHT22;10678;51.002;4.786;2023-04-15T06:50:17;13.60;99.90
21039;DHT22;10678;51.002;4.786;2023-04-15T06:52:43;13.60;99.90
21039;DHT22;10678;51.002;4.786;2023-04-15T06:55:08;14.00;99.90
21039;DHT22;10678;51.002;4.786;2023-04-15T06:57:34;14.10;99.90
21039;DHT22;10678;51.002;4.786;2023-04-15T07:00:00;14.10;99.90
21039;DHT22;10678;51.002;4.786;2023-04-15T07:02:26;14.00;99.90
21039;DHT22;10678;51.002;4.786;2023-04-15T07:04:51;14.20;99.90
21039;DHT22;10678;51.002;4.786;2023-04-15T07:07:17;14.30;99.90
21039;DHT22;10678;51.002;4.786;2023-04-15T07:09:43;14.20;99.90
21039;DHT22;10678;51.002;4.786;2023-04-15T07:12:09;13.90;99.90
21039;DHT22;10678;51.002;4.786;2023-04-15T07:14:34;13.80;99.90
21039;DHT22;10678;51.002;4.786;2023-04-15T07:17:00;13.80;99.90
21039;DHT22;10678;51.002;4.786;2023-04-15T07:19:27;13.80;99.90
21039;DHT22;10678;51.002;4.786;2023-04-15T07:21:52;13.70;99.90
21039;DHT22;10678;51.002;4.786;2023-04-15T07:24:18;13.70;99.90
21039;DHT22;10678;51.002;4.786;2023-04-15T07:26:45;13.80;99.90
21039;DHT22;10678;51.002;4.786;2023-04-15T07:29:10;14.30;99.90
21039;DHT22;10678;51.002;4.786;2023-04-15T07:31:36;15.00;99.90
21039;DHT22;10678;51.002;4.786;2023-04-15T07:34:02;15.70;99.90
21039;DHT22;10678;51.002;4.786;2023-04-15T07:36:29;16.70;99.90
21039;DHT22;10678;51.002;4.786;2023-04-15T07:38:55;18.80;99.90
21039;DHT22;10678;51.002;4.786;2023-04-15T07:41:21;21.10;99.90
21039;DHT22;10678;51.002;4.786;2023-04-15T07:43:47;23.60;95.60
21039;DHT22;10678;51.002;4.786;2023-04-15T07:46:13;25.60;83.40
21039;DHT22;10678;51.002;4.786;2023-04-15T07:48:39;26.40;77.50
21039;DHT22;10678;51.002;4.786;2023-04-15T07:51:05;28.00;66.80
21039;DHT22;10678;51.002;4.786;2023-04-15T07:53:30;28.40;60.60
21039;DHT22;10678;51.002;4.786;2023-04-15T07:55:57;28.10;62.40
21039;DHT22;10678;51.002;4.786;2023-04-15T07:58:23;29.70;58.30
21039;DHT22;10678;51.002;4.786;2023-04-15T08:00:49;31.10;54.30
21039;DHT22;10678;51.002;4.786;2023-04-15T08:03:14;31.80;49.70
21039;DHT22;10678;51.002;4.786;2023-04-15T08:05:40;32.00;49.30
21039;DHT22;10678;51.002;4.786;2023-04-15T08:08:06;32.50;47.60
21039;DHT22;10678;51.002;4.786;2023-04-15T08:10:32;32.10;47.00
21039;DHT22;10678;51.002;4.786;2023-04-15T08:12:58;31.30;48.40
21039;DHT22;10678;51.002;4.786;2023-04-15T08:15:24;30.80;48.00
21039;DHT22;10678;51.002;4.786;2023-04-15T08:17:50;30.50;48.10
21039;DHT22;10678;51.002;4.786;2023-04-15T08:20:15;29.60;48.40
21039;DHT22;10678;51.002;4.786;2023-04-15T08:22:41;29.20;50.50
21039;DHT22;10678;51.002;4.786;2023-04-15T08:25:07;30.00;49.20
21039;DHT22;10678;51.002;4.786;2023-04-15T08:27:33;29.80;49.20
21039;DHT22;10678;51.002;4.786;2023-04-15T08:29:58;30.50;48.60
21039;DHT22;10678;51.002;4.786;2023-04-15T08:32:24;31.20;47.80
21039;DHT22;10678;51.002;4.786;2023-04-15T08:34:51;30.60;48.20
21039;DHT22;10678;51.002;4.786;2023-04-15T08:37:17;30.30;48.60
21039;DHT22;10678;51.002;4.786;2023-04-15T08:39:43;30.40;48.10
21039;DHT22;10678;51.002;4.786;2023-04-15T08:42:16;30.70;47.80
21039;DHT22;10678;51.002;4.786;2023-04-15T08:44:42;31.10;47.40
21039;DHT22;10678;51.002;4.786;2023-04-15T08:47:11;32.10;47.30
21039;DHT22;10678;51.002;4.786;2023-04-15T08:49:39;33.10;45.60
21039;DHT22;10678;51.002;4.786;2023-04-15T08:52:06;34.30;44.10
21039;DHT22;10678;51.002;4.786;2023-04-15T08:54:32;34.30;42.40
21039;DHT22;10678;51.002;4.786;2023-04-15T08:56:58;33.80;42.70
21039;DHT22;10678;51.002;4.786;2023-04-15T08:59:24;33.30;43.10
21039;DHT22;10678;51.002;4.786;2023-04-15T09:01:50;32.80;43.70
21039;DHT22;10678;51.002;4.786;2023-04-15T09:04:16;33.50;43.10
21039;DHT22;10678;51.002;4.786;2023-04-15T09:06:42;34.00;42.70
21039;DHT22;10678;51.002;4.786;2023-04-15T09:09:08;34.10;43.10
21039;DHT22;10678;51.002;4.786;2023-04-15T09:11:34;34.40;42.20
21039;DHT22;10678;51.002;4.786;2023-04-15T09:14:00;33.30;43.50
21039;DHT22;10678;51.002;4.786;2023-04-15T09:16:26;32.80;43.60
21039;DHT22;10678;51.002;4.786;2023-04-15T09:18:53;32.40;43.40
21039;DHT22;10678;51.002;4.786;2023-04-15T09:21:19;31.20;45.20
21039;DHT22;10678;51.002;4.786;2023-04-15T09:23:59;30.90;45.70
21039;DHT22;10678;51.002;4.786;2023-04-15T09:26:36;30.30;45.90
21039;DHT22;10678;51.002;4.786;2023-04-15T09:29:04;31.60;46.60
21039;DHT22;10678;51.002;4.786;2023-04-15T09:31:31;32.40;43.40
21039;DHT22;10678;51.002;4.786;2023-04-15T09:33:56;32.20;43.50
21039;DHT22;10678;51.002;4.786;2023-04-15T09:36:22;31.90;43.30
21039;DHT22;10678;51.002;4.786;2023-04-15T09:38:56;32.00;44.10
21039;DHT22;10678;51.002;4.786;2023-04-15T09:41:23;32.50;43.80
21039;DHT22;10678;51.002;4.786;2023-04-15T09:43:49;32.60;42.00
21039;DHT22;10678;51.002;4.786;2023-04-15T09:46:14;31.60;42.80
21039;DHT22;10678;51.002;4.786;2023-04-15T09:48:40;30.70;42.60
21039;DHT22;10678;51.002;4.786;2023-04-15T09:51:06;29.80;44.20
21039;DHT22;10678;51.002;4.786;2023-04-15T09:53:34;30.10;43.40
21039;DHT22;10678;51.002;4.786;2023-04-15T09:56:00;31.00;43.60
21039;DHT22;10678;51.002;4.786;2023-04-15T09:58:31;31.90;42.50
21039;DHT22;10678;51.002;4.786;2023-04-15T10:00:59;32.60;41.10
21039;DHT22;10678;51.002;4.786;2023-04-15T10:03:27;32.10;39.00
21039;DHT22;10678;51.002;4.786;2023-04-15T10:05:55;33.00;40.20
21039;DHT22;10678;51.002;4.786;2023-04-15T10:08:27;33.80;39.20
21039;DHT22;10678;51.002;4.786;2023-04-15T10:10:53;34.10;38.10
21039;DHT22;10678;51.002;4.786;2023-04-15T10:13:21;35.40;36.90
21039;DHT22;10678;51.002;4.786;2023-04-15T10:16:12;36.00;37.00
21039;DHT22;10678;51.002;4.786;2023-04-15T10:18:39;35.90;37.00
21039;DHT22;10678;51.002;4.786;2023-04-15T10:21:06;36.30;37.20
21039;DHT22;10678;51.002;4.786;2023-04-15T10:23:33;36.80;36.60
21039;DHT22;10678;51.002;4.786;2023-04-15T10:25:58;36.70;35.90
21039;DHT22;10678;51.002;4.786;2023-04-15T10:28:25;36.10;36.60
21039;DHT22;10678;51.002;4.786;2023-04-15T10:30:51;34.60;37.00
21039;DHT22;10678;51.002;4.786;2023-04-15T10:33:20;34.50;36.70
21039;DHT22;10678;51.002;4.786;2023-04-15T10:35:47;33.50;36.30
21039;DHT22;10678;51.002;4.786;2023-04-15T10:38:39;33.10;38.80
21039;DHT22;10678;51.002;4.786;2023-04-15T10:43:38;34.50;34.40
21039;DHT22;10678;51.002;4.786;2023-04-15T10:46:05;35.60;33.50
21039;DHT22;10678;51.002;4.786;2023-04-15T10:48:31;34.90;33.20
21039;DHT22;10678;51.002;4.786;2023-04-15T10:50:59;34.20;33.40
21039;DHT22;10678;51.002;4.786;2023-04-15T10:53:28;33.40;33.40
21039;DHT22;10678;51.002;4.786;2023-04-15T10:55:53;33.40;35.20
21039;DHT22;10678;51.002;4.786;2023-04-15T10:58:24;32.60;36.30
21039;DHT22;10678;51.002;4.786;2023-04-15T11:00:52;31.80;37.70
21039;DHT22;10678;51.002;4.786;2023-04-15T11:03:36;33.20;36.90
21039;DHT22;10678;51.002;4.786;2023-04-15T11:06:03;33.00;34.20
21039;DHT22;10678;51.002;4.786;2023-04-15T11:08:58;32.80;34.00
21039;DHT22;10678;51.002;4.786;2023-04-15T11:12:16;32.60;34.40
21039;DHT22;10678;51.002;4.786;2023-04-15T11:14:39;32.60;34.60
21039;DHT22;10678;51.002;4.786;2023-04-15T11:17:04;33.10;35.00
21039;DHT22;10678;51.002;4.786;2023-04-15T11:19:37;34.00;34.90
21039;DHT22;10678;51.002;4.786;2023-04-15T11:22:10;33.90;34.40
21039;DHT22;10678;51.002;4.786;2023-04-15T11:24:36;34.30;35.60
21039;DHT22;10678;51.002;4.786;2023-04-15T11:27:01;35.60;33.20
21039;DHT22;10678;51.002;4.786;2023-04-15T11:29:30;36.40;32.00
21039;DHT22;10678;51.002;4.786;2023-04-15T11:32:08;35.80;30.60
21039;DHT22;10678;51.002;4.786;2023-04-15T11:34:34;35.40;32.70
21039;DHT22;10678;51.002;4.786;2023-04-15T11:37:03;34.90;32.40
21039;DHT22;10678;51.002;4.786;2023-04-15T11:39:29;34.10;33.60
21039;DHT22;10678;51.002;4.786;2023-04-15T11:41:55;34.10;33.90
21039;DHT22;10678;51.002;4.786;2023-04-15T11:44:20;34.80;31.90
21039;DHT22;10678;51.002;4.786;2023-04-15T11:46:46;35.70;33.30
21039;DHT22;10678;51.002;4.786;2023-04-15T11:49:25;35.30;31.30
21039;DHT22;10678;51.002;4.786;2023-04-15T11:51:51;35.10;34.10
21039;DHT22;10678;51.002;4.786;2023-04-15T11:54:19;34.80;32.80
21039;DHT22;10678;51.002;4.786;2023-04-15T11:56:49;35.10;32.40
21039;DHT22;10678;51.002;4.786;2023-04-15T11:59:16;35.00;33.10
21039;DHT22;10678;51.002;4.786;2023-04-15T12:01:41;36.10;31.00
21039;DHT22;10678;51.002;4.786;2023-04-15T12:04:26;35.10;33.60
21039;DHT22;10678;51.002;4.786;2023-04-15T12:06:52;35.60;32.30
21039;DHT22;10678;51.002;4.786;2023-04-15T12:09:17;35.90;32.50
21039;DHT22;10678;51.002;4.786;2023-04-15T12:11:51;34.70;32.80
21039;DHT22;10678;51.002;4.786;2023-04-15T12:14:23;33.40;30.60
21039;DHT22;10678;51.002;4.786;2023-04-15T12:16:51;33.50;31.70
21039;DHT22;10678;51.002;4.786;2023-04-15T12:19:23;33.30;33.60
21039;DHT22;10678;51.002;4.786;2023-04-15T12:21:50;33.90;31.20
21039;DHT22;10678;51.002;4.786;2023-04-15T12:24:19;33.90;31.20
21039;DHT22;10678;51.002;4.786;2023-04-15T12:26:49;33.50;30.20
21039;DHT22;10678;51.002;4.786;2023-04-15T12:29:16;32.40;32.80
21039;DHT22;10678;51.002;4.786;2023-04-15T12:31:48;33.00;34.30
21039;DHT22;10678;51.002;4.786;2023-04-15T12:34:15;33.50;31.00
21039;DHT22;10678;51.002;4.786;2023-04-15T12:36:41;34.00;32.70
21039;DHT22;10678;51.002;4.786;2023-04-15T12:39:06;33.60;32.10
21039;DHT22;10678;51.002;4.786;2023-04-15T12:41:32;32.80;32.90
21039;DHT22;10678;51.002;4.786;2023-04-15T12:43:58;33.00;33.20
21039;DHT22;10678;51.002;4.786;2023-04-15T12:46:24;32.50;33.20
21039;DHT22;10678;51.002;4.786;2023-04-15T12:48:50;31.10;33.40
21039;DHT22;10678;51.002;4.786;2023-04-15T12:51:19;31.00;33.20
21039;DHT22;10678;51.002;4.786;2023-04-15T12:53:48;30.70;35.20
21039;DHT22;10678;51.002;4.786;2023-04-15T12:56:14;30.40;34.20
21039;DHT22;10678;51.002;4.786;2023-04-15T12:58:41;29.90;33.10
21039;DHT22;10678;51.002;4.786;2023-04-15T13:01:06;30.00;33.80
21039;DHT22;10678;51.002;4.786;2023-04-15T13:03:32;29.80;33.60
21039;DHT22;10678;51.002;4.786;2023-04-15T13:05:57;29.00;34.30
21039;DHT22;10678;51.002;4.786;2023-04-15T13:08:23;28.50;35.80
21039;DHT22;10678;51.002;4.786;2023-04-15T13:10:49;28.90;35.50
21039;DHT22;10678;51.002;4.786;2023-04-15T13:13:14;29.50;35.90
21039;DHT22;10678;51.002;4.786;2023-04-15T13:15:40;30.00;35.50
21039;DHT22;10678;51.002;4.786;2023-04-15T13:18:06;29.80;35.40
21039;DHT22;10678;51.002;4.786;2023-04-15T13:20:32;29.30;37.20
21039;DHT22;10678;51.002;4.786;2023-04-15T13:22:57;28.90;37.50
21039;DHT22;10678;51.002;4.786;2023-04-15T13:25:23;28.30;37.30
21039;DHT22;10678;51.002;4.786;2023-04-15T13:27:50;28.80;37.10
21039;DHT22;10678;51.002;4.786;2023-04-15T13:30:15;28.20;37.40
21039;DHT22;10678;51.002;4.786;2023-04-15T13:32:41;28.20;38.10
21039;DHT22;10678;51.002;4.786;2023-04-15T13:35:07;27.90;39.50
21039;DHT22;10678;51.002;4.786;2023-04-15T13:37:33;27.90;38.60
21039;DHT22;10678;51.002;4.786;2023-04-15T13:39:58;28.40;38.10
21039;DHT22;10678;51.002;4.786;2023-04-15T13:42:24;27.10;39.20
21039;DHT22;10678;51.002;4.786;2023-04-15T13:44:50;26.80;40.70
21039;DHT22;10678;51.002;4.786;2023-04-15T13:47:16;26.90;42.30
21039;DHT22;10678;51.002;4.786;2023-04-15T13:49:42;27.20;40.70
21039;DHT22;10678;51.002;4.786;2023-04-15T13:52:08;27.10;41.20
21039;DHT22;10678;51.002;4.786;2023-04-15T13:54:34;26.60;41.40
21039;DHT22;10678;51.002;4.786;2023-04-15T13:56:59;26.40;41.70
21039;DHT22;10678;51.002;4.786;2023-04-15T13:59:26;25.70;42.50
21039;DHT22;10678;51.002;4.786;2023-04-15T14:01:51;25.10;44.10
21039;DHT22;10678;51.002;4.786;2023-04-15T14:04:17;24.20;46.70
21039;DHT22;10678;51.002;4.786;2023-04-15T14:06:43;23.10;49.60
21039;DHT22;10678;51.002;4.786;2023-04-15T14:09:09;22.10;52.00
21039;DHT22;10678;51.002;4.786;2023-04-15T14:11:36;21.00;53.90
21039;DHT22;10678;51.002;4.786;2023-04-15T14:14:02;20.60;56.20
21039;DHT22;10678;51.002;4.786;2023-04-15T14:16:28;20.50;56.00
21039;DHT22;10678;51.002;4.786;2023-04-15T14:18:53;20.20;57.40
21039;DHT22;10678;51.002;4.786;2023-04-15T14:21:19;20.00;58.20
21039;DHT22;10678;51.002;4.786;2023-04-15T14:23:45;19.50;60.10
21039;DHT22;10678;51.002;4.786;2023-04-15T14:26:10;18.90;61.60
21039;DHT22;10678;51.002;4.786;2023-04-15T14:28:36;18.60;64.50
21039;DHT22;10678;51.002;4.786;2023-04-15T14:31:03;18.50;66.50
21039;DHT22;10678;51.002;4.786;2023-04-15T14:33:29;18.40;67.20
21039;DHT22;10678;51.002;4.786;2023-04-15T14:35:55;18.30;68.00
21039;DHT22;10678;51.002;4.786;2023-04-15T14:38:20;18.20;68.70
21039;DHT22;10678;51.002;4.786;2023-04-15T14:40:47;17.80;68.90
21039;DHT22;10678;51.002;4.786;2023-04-15T14:43:12;17.70;72.60
21039;DHT22;10678;51.002;4.786;2023-04-15T14:45:38;17.30;70.40
21039;DHT22;10678;51.002;4.786;2023-04-15T14:48:04;17.20;73.20
21039;DHT22;10678;51.002;4.786;2023-04-15T14:50:31;17.20;72.60
21039;DHT22;10678;51.002;4.786;2023-04-15T14:52:57;17.10;71.60
21039;DHT22;10678;51.002;4.786;2023-04-15T14:55:23;16.90;75.30
21039;DHT22;10678;51.002;4.786;2023-04-15T14:57:48;16.80;77.70
21039;DHT22;10678;51.002;4.786;2023-04-15T15:00:14;16.80;76.30
21039;DHT22;10678;51.002;4.786;2023-04-15T15:02:39;16.80;78.00
21039;DHT22;10678;51.002;4.786;2023-04-15T15:05:07;16.80;77.60
21039;DHT22;10678;51.002;4.786;2023-04-15T15:07:32;16.70;75.60
21039;DHT22;10678;51.002;4.786;2023-04-15T15:09:58;16.70;77.90
21039;DHT22;10678;51.002;4.786;2023-04-15T15:12:24;16.80;78.40
21039;DHT22;10678;51.002;4.786;2023-04-15T15:14:49;16.80;80.40
21039;DHT22;10678;51.002;4.786;2023-04-15T15:17:15;16.90;78.10
21039;DHT22;10678;51.002;4.786;2023-04-15T15:19:41;16.80;79.70
21039;DHT22;10678;51.002;4.786;2023-04-15T15:22:06;16.90;79.30
21039;DHT22;10678;51.002;4.786;2023-04-15T15:24:32;16.80;78.10
21039;DHT22;10678;51.002;4.786;2023-04-15T15:26:57;16.90;79.40
21039;DHT22;10678;51.002;4.786;2023-04-15T15:29:23;16.80;81.70
21039;DHT22;10678;51.002;4.786;2023-04-15T15:31:49;16.80;83.10